Time;durP1;ratioP1;P1;durP2;ratioP2;P2;SDS_P1;SDS_P2;PMS_P1;PMS_P2;Temp;Humidity;BMP_temperature;BMP_pressure;BME280_temperature;BME280_humidity;BME280_pressure;Samples;Min_cycle;Max_cycle;Signal;HPM_P1;HPM_P2
2023/06/13 00:01:03;;;;;;;1999.90;999.90;;;21.70;6.30;;;;;;5033907;28;20891;-69
2023/06/13 00:03:29;;;;;;;1999.90;999.90;;;21.60;6.60;;;;;;5034100;28;20446;-69
2023/06/13 00:05:55;;;;;;;1999.90;999.90;;;21.60;6.90;;;;;;5034109;28;20392;-69
2023/06/13 00:08:24;;;;;;;1999.90;999.90;;;21.60;6.80;;;;;;5033973;28;20188;-69
2023/06/13 00:10:52;;;;;;;1999.90;999.90;;;21.60;7.10;;;;;;5033838;28;20882;-69
2023/06/13 00:13:18;;;;;;;1999.90;999.90;;;21.50;5.70;;;;;;5033896;28;20403;-69
2023/06/13 00:15:52;;;;;;;1999.90;999.90;;;21.50;5.00;;;;;;5033922;28;20487;-69
2023/06/13 00:18:19;;;;;;;1999.90;999.90;;;21.50;5.20;;;;;;5033904;28;20607;-69
2023/06/13 00:20:46;;;;;;;1999.90;999.90;;;21.50;5.10;;;;;;5033690;28;20928;-69
2023/06/13 00:23:12;;;;;;;1999.90;999.90;;;21.40;5.60;;;;;;5033439;28;20500;-69
2023/06/13 00:25:38;;;;;;;1999.90;999.90;;;21.40;6.40;;;;;;5033837;28;20418;-69
2023/06/13 00:28:04;;;;;;;1999.90;999.90;;;21.40;6.40;;;;;;5033568;28;20416;-69
2023/06/13 00:30:30;;;;;;;1999.90;999.90;;;21.40;5.40;;;;;;5033784;28;20427;-69
2023/06/13 00:32:56;;;;;;;1999.90;999.90;;;21.40;5.10;;;;;;5033319;28;20450;-69
2023/06/13 00:35:22;;;;;;;1999.90;999.90;;;21.40;4.90;;;;;;5033547;28;20939;-69
2023/06/13 00:37:51;;;;;;;1999.90;999.90;;;21.40;4.80;;;;;;5033406;28;20201;-69
2023/06/13 00:40:20;;;;;;;1999.90;999.90;;;21.50;4.80;;;;;;5033559;28;20233;-69
2023/06/13 00:42:46;;;;;;;1999.90;999.90;;;21.50;4.50;;;;;;5033072;28;20512;-69
2023/06/13 00:45:25;;;;;;;1999.90;999.90;;;21.50;4.80;;;;;;5033368;28;20449;-68
2023/06/13 00:47:56;;;;;;;1999.90;999.90;;;21.40;4.20;;;;;;5033218;28;20430;-69
2023/06/13 00:50:28;;;;;;;1999.90;999.90;;;21.40;4.60;;;;;;5033216;28;20463;-68
2023/06/13 00:52:55;;;;;;;1999.90;999.90;;;21.30;4.50;;;;;;5032884;28;20378;-68
2023/06/13 00:55:22;;;;;;;1999.90;999.90;;;21.40;4.60;;;;;;5032263;28;20406;-69
2023/06/13 00:57:51;;;;;;;1999.90;999.90;;;21.30;4.40;;;;;;5033093;28;20815;-68
2023/06/13 01:00:18;;;;;;;1999.90;999.90;;;21.30;4.20;;;;;;5033081;28;20944;-69
2023/06/13 01:02:44;;;;;;;1999.90;999.90;;;21.30;4.10;;;;;;5032610;28;20962;-69
2023/06/13 01:05:11;;;;;;;1999.90;999.90;;;21.20;3.80;;;;;;5032936;28;20423;-68
2023/06/13 01:07:39;;;;;;;1999.90;999.90;;;21.20;4.10;;;;;;5032882;28;20404;-68
2023/06/13 01:10:05;;;;;;;1999.90;999.90;;;21.20;4.50;;;;;;5032863;28;20835;-68
2023/06/13 01:12:51;;;;;;;1999.90;999.90;;;21.10;4.80;;;;;;5032598;28;20393;-69
2023/06/13 01:15:21;;;;;;;1999.90;999.90;;;21.10;5.30;;;;;;5032818;28;20402;-69
2023/06/13 01:17:57;;;;;;;1999.90;999.90;;;21.00;5.90;;;;;;5032660;28;20463;-68
2023/06/13 01:20:27;;;;;;;1999.90;999.90;;;21.00;5.60;;;;;;5032670;28;20405;-69
2023/06/13 01:23:06;;;;;;;1999.90;999.90;;;20.90;5.60;;;;;;5032355;28;20810;-69
2023/06/13 01:26:07;;;;;;;1999.90;999.90;;;20.90;5.30;;;;;;5032598;28;20406;-69
2023/06/13 01:28:35;;;;;;;1999.90;999.90;;;20.90;5.70;;;;;;5032629;28;20786;-68
2023/06/13 01:31:08;;;;;;;1999.90;999.90;;;20.80;5.60;;;;;;5032159;28;20389;-68
2023/06/13 01:33:36;;;;;;;1999.90;999.90;;;20.80;4.90;;;;;;5032510;28;20373;-68
2023/06/13 01:36:02;;;;;;;1999.90;999.90;;;20.60;4.00;;;;;;5032381;28;20399;-68
2023/06/13 01:38:28;;;;;;;1999.90;999.90;;;20.50;4.10;;;;;;5032366;28;20387;-69
2023/06/13 01:40:53;;;;;;;1999.90;999.90;;;20.50;4.80;;;;;;5032187;28;20392;-68
2023/06/13 01:43:19;;;;;;;1999.90;999.90;;;20.50;4.70;;;;;;5032205;28;20284;-69
2023/06/13 01:45:45;;;;;;;1999.90;999.90;;;20.50;5.20;;;;;;5032298;28;20167;-68
2023/06/13 01:48:23;;;;;;;1999.90;999.90;;;20.50;5.10;;;;;;5032171;28;20195;-69
2023/06/13 01:51:00;;;;;;;1999.90;999.90;;;20.40;4.60;;;;;;5032089;28;20432;-69
2023/06/13 01:53:48;;;;;;;1999.90;999.90;;;20.50;4.90;;;;;;5032336;28;20772;-69
2023/06/13 01:56:19;;;;;;;1999.90;999.90;;;20.50;4.80;;;;;;5032115;28;20388;-69
2023/06/13 01:58:57;;;;;;;1999.90;999.90;;;20.40;5.30;;;;;;5032190;28;20409;-70
2023/06/13 02:01:25;;;;;;;1999.90;999.90;;;20.40;5.00;;;;;;5031725;28;20388;-69
2023/06/13 02:03:51;;;;;;;1999.90;999.90;;;20.30;5.60;;;;;;5032059;28;20395;-69
2023/06/13 02:06:17;;;;;;;1999.90;999.90;;;20.30;5.70;;;;;;5031814;28;20417;-69
2023/06/13 02:08:44;;;;;;;1999.90;999.90;;;20.30;5.30;;;;;;5032007;28;20204;-69
2023/06/13 02:11:10;;;;;;;1999.90;999.90;;;20.30;5.20;;;;;;5031707;28;20905;-69
2023/06/13 02:13:35;;;;;;;1999.90;999.90;;;20.20;4.90;;;;;;5031907;28;20407;-69
2023/06/13 02:16:01;;;;;;;1999.90;999.90;;;20.20;5.10;;;;;;5031915;28;20174;-69
2023/06/13 02:18:27;;;;;;;1999.90;999.90;;;20.20;5.30;;;;;;5031833;28;20191;-69
2023/06/13 02:20:54;;;;;;;1999.90;999.90;;;20.10;5.40;;;;;;5031577;28;20187;-69
2023/06/13 02:23:19;;;;;;;1999.90;999.90;;;20.10;5.50;;;;;;5031744;28;21165;-69
2023/06/13 02:25:46;;;;;;;1999.90;999.90;;;20.10;5.80;;;;;;5031830;28;20549;-69
2023/06/13 02:28:12;;;;;;;1999.90;999.90;;;20.10;5.90;;;;;;5031728;28;20190;-68
2023/06/13 02:30:38;;;;;;;1999.90;999.90;;;20.10;5.80;;;;;;5031784;28;20410;-69
2023/06/13 02:33:03;;;;;;;1999.90;999.90;;;20.00;5.80;;;;;;5031546;28;20407;-69
2023/06/13 02:35:29;;;;;;;1999.90;999.90;;;20.00;6.30;;;;;;5031807;28;20171;-69
2023/06/13 02:37:56;;;;;;;1999.90;999.90;;;19.90;6.80;;;;;;5031599;28;20201;-69
2023/06/13 02:40:22;;;;;;;1999.90;999.90;;;19.90;6.70;;;;;;5031687;28;20648;-69
2023/06/13 02:42:49;;;;;;;1999.90;999.90;;;19.80;6.90;;;;;;5031600;28;20440;-69
2023/06/13 02:45:16;;;;;;;1999.90;999.90;;;19.80;7.00;;;;;;5031838;28;20424;-69
2023/06/13 02:47:41;;;;;;;1999.90;999.90;;;19.80;7.30;;;;;;5031698;28;20398;-69
2023/06/13 02:50:07;;;;;;;1999.90;999.90;;;19.70;7.00;;;;;;5031780;28;20411;-69
2023/06/13 02:52:33;;;;;;;1999.90;999.90;;;19.70;7.40;;;;;;5031284;28;20185;-69
2023/06/13 02:54:59;;;;;;;1999.90;999.90;;;19.60;7.50;;;;;;5031655;28;20558;-69
2023/06/13 02:57:25;;;;;;;1999.90;999.90;;;19.60;7.50;;;;;;5031480;28;20429;-69
2023/06/13 02:59:50;;;;;;;1999.90;999.90;;;19.60;7.70;;;;;;5031598;28;20224;-69
2023/06/13 03:02:16;;;;;;;1999.90;999.90;;;19.60;8.20;;;;;;5031235;28;20890;-69
2023/06/13 03:04:42;;;;;;;1999.90;999.90;;;19.50;8.10;;;;;;5031606;28;20171;-69
2023/06/13 03:07:10;;;;;;;1999.90;999.90;;;19.50;8.10;;;;;;5031377;28;20557;-69
2023/06/13 03:09:35;;;;;;;1999.90;999.90;;;19.50;8.60;;;;;;5031412;28;20166;-69
2023/06/13 03:12:02;;;;;;;1999.90;999.90;;;19.40;8.60;;;;;;5031154;28;21053;-69
2023/06/13 03:14:28;;;;;;;1999.90;999.90;;;19.40;8.90;;;;;;5031623;28;20189;-69
2023/06/13 03:16:55;;;;;;;1999.90;999.90;;;19.40;9.10;;;;;;5031420;28;20861;-69
2023/06/13 03:19:21;;;;;;;1999.90;999.90;;;19.40;9.30;;;;;;5033721;28;20442;-69
2023/06/13 03:21:47;;;;;;;1999.90;999.90;;;19.30;9.50;;;;;;5034666;28;20472;-69
2023/06/13 03:24:14;;;;;;;1999.90;999.90;;;19.30;9.70;;;;;;5034975;28;20380;-69
2023/06/13 03:26:39;;;;;;;1999.90;999.90;;;19.30;9.70;;;;;;5035091;28;20279;-69
2023/06/13 03:29:07;;;;;;;1999.90;999.90;;;19.20;10.00;;;;;;5034903;28;20446;-69
2023/06/13 03:31:33;;;;;;;1999.90;999.90;;;19.20;9.90;;;;;;5034594;28;20162;-69
2023/06/13 03:33:58;;;;;;;1999.90;999.90;;;19.10;9.80;;;;;;5034783;28;20744;-68
2023/06/13 03:36:24;;;;;;;1999.90;999.90;;;19.10;10.10;;;;;;5034616;28;20191;-69
2023/06/13 03:38:50;;;;;;;1999.90;999.90;;;19.00;10.10;;;;;;5034654;28;20516;-69
2023/06/13 03:41:16;;;;;;;1999.90;999.90;;;19.00;10.30;;;;;;5034583;28;20597;-69
2023/06/13 03:43:41;;;;;;;1999.90;999.90;;;19.10;10.60;;;;;;5034552;28;20543;-69
2023/06/13 03:46:07;;;;;;;1999.90;999.90;;;19.10;10.60;;;;;;5034500;28;20247;-69
2023/06/13 03:48:33;;;;;;;1999.90;999.90;;;19.00;10.70;;;;;;5034549;28;20170;-69
2023/06/13 03:50:58;;;;;;;1999.90;999.90;;;19.10;10.90;;;;;;5034172;28;20284;-69
2023/06/13 03:53:24;;;;;;;1999.90;999.90;;;19.00;11.00;;;;;;5034388;28;20168;-69
2023/06/13 03:55:49;;;;;;;1999.90;999.90;;;19.00;11.70;;;;;;5034352;28;20696;-69
2023/06/13 03:58:15;;;;;;;1999.90;999.90;;;19.00;11.80;;;;;;5034299;28;20190;-69
2023/06/13 04:00:42;;;;;;;1999.90;999.90;;;19.10;12.20;;;;;;5034373;28;20188;-69
2023/06/13 04:03:10;;;;;;;1999.90;999.90;;;19.00;12.50;;;;;;5034012;28;20201;-69
2023/06/13 04:05:36;;;;;;;1999.90;999.90;;;18.90;12.70;;;;;;5034200;28;20802;-69
2023/06/13 04:08:03;;;;;;;1999.90;999.90;;;18.90;13.00;;;;;;5034006;28;20434;-69
2023/06/13 04:10:29;;;;;;;1999.90;999.90;;;18.90;13.40;;;;;;5034131;28;20408;-69
2023/06/13 04:12:55;;;;;;;1999.90;999.90;;;19.00;13.90;;;;;;5033763;28;20541;-69
2023/06/13 04:15:21;;;;;;;1999.90;999.90;;;19.00;14.10;;;;;;5033984;28;20191;-69
2023/06/13 04:17:47;;;;;;;1999.90;999.90;;;19.00;14.60;;;;;;5033987;28;20431;-69
2023/06/13 04:20:16;;;;;;;1999.90;999.90;;;19.00;14.80;;;;;;5033743;28;20937;-69
2023/06/13 04:22:42;;;;;;;1999.90;999.90;;;19.00;15.60;;;;;;5033463;28;20201;-69
2023/06/13 04:25:08;;;;;;;1999.90;999.90;;;19.00;15.80;;;;;;5033845;28;20937;-69
2023/06/13 04:27:34;;;;;;;1999.90;999.90;;;19.00;16.40;;;;;;5033730;28;20189;-69
2023/06/13 04:30:00;;;;;;;1999.90;999.90;;;19.00;16.20;;;;;;5032512;28;20169;-69
2023/06/13 04:32:28;;;;;;;1999.90;999.90;;;19.10;16.30;;;;;;5033358;28;20896;-69
2023/06/13 04:34:55;;;;;;;1999.90;999.90;;;19.10;15.80;;;;;;5033650;28;20441;-69
2023/06/13 04:37:25;;;;;;;1999.90;999.90;;;19.10;15.80;;;;;;5033417;28;20435;-69
2023/06/13 04:39:55;;;;;;;1999.90;999.90;;;19.10;16.10;;;;;;5033559;28;20407;-69
2023/06/13 04:42:27;;;;;;;1999.90;999.90;;;19.20;16.20;;;;;;5033235;28;20529;-69
2023/06/13 04:44:53;;;;;;;1999.90;999.90;;;19.20;16.50;;;;;;5033613;28;20462;-69
2023/06/13 04:47:33;;;;;;;1999.90;999.90;;;19.30;17.00;;;;;;5033350;28;21055;-69
2023/06/13 04:49:59;;;;;;;1999.90;999.90;;;19.40;17.80;;;;;;5033353;28;20439;-69
2023/06/13 04:52:32;;;;;;;1999.90;999.90;;;19.40;17.50;;;;;;5033277;28;20424;-69
2023/06/13 04:55:00;;;;;;;1999.90;999.90;;;19.40;17.70;;;;;;5033418;28;20414;-69
2023/06/13 04:57:26;;;;;;;1999.90;999.90;;;19.50;17.90;;;;;;5033196;28;20468;-69
2023/06/13 04:59:52;;;;;;;1999.90;999.90;;;19.60;18.40;;;;;;5033157;28;20457;-68
2023/06/13 05:02:18;;;;;;;1999.90;999.90;;;19.60;18.00;;;;;;5032584;28;20442;-68
2023/06/13 05:04:44;;;;;;;1999.90;999.90;;;19.70;18.20;;;;;;5033495;28;20172;-69
2023/06/13 05:07:15;;;;;;;1999.90;999.90;;;19.80;18.50;;;;;;5032934;28;20196;-68
2023/06/13 05:09:44;;;;;;;1999.90;999.90;;;19.80;18.40;;;;;;5033075;28;20377;-69
2023/06/13 05:12:11;;;;;;;1999.90;999.90;;;19.80;18.60;;;;;;5032970;28;20408;-69
2023/06/13 05:14:39;;;;;;;1999.90;999.90;;;19.80;18.90;;;;;;5032997;28;20418;-69
2023/06/13 05:17:12;;;;;;;1999.90;999.90;;;19.80;19.90;;;;;;5032683;28;20942;-68
2023/06/13 05:19:38;;;;;;;1999.90;999.90;;;19.90;20.70;;;;;;5033038;28;20934;-69
2023/06/13 05:22:05;;;;;;;1999.90;999.90;;;19.90;21.30;;;;;;5032590;28;20449;-69
2023/06/13 05:24:31;;;;;;;1999.90;999.90;;;20.00;21.80;;;;;;5033025;28;20406;-69
2023/06/13 05:26:58;;;;;;;1999.90;999.90;;;20.00;23.10;;;;;;5032788;28;20462;-69
2023/06/13 05:29:24;;;;;;;1999.90;999.90;;;20.00;23.70;;;;;;5032674;28;20462;-69
2023/06/13 05:31:49;;;;;;;1999.90;999.90;;;20.10;24.60;;;;;;5032544;28;20376;-69
2023/06/13 05:34:15;;;;;;;1999.90;999.90;;;20.20;25.60;;;;;;5032771;28;20177;-69
2023/06/13 05:36:40;;;;;;;1999.90;999.90;;;20.10;25.70;;;;;;5032777;28;20220;-69
2023/06/13 05:39:07;;;;;;;1999.90;999.90;;;20.20;27.80;;;;;;5032629;28;20600;-69
2023/06/13 05:41:33;;;;;;;1999.90;999.90;;;20.20;28.70;;;;;;5032021;28;20170;-69
2023/06/13 05:43:59;;;;;;;1999.90;999.90;;;20.20;29.20;;;;;;5032425;28;20914;-69
2023/06/13 05:46:25;;;;;;;1999.90;999.90;;;20.20;30.10;;;;;;5032418;28;20484;-69
2023/06/13 05:48:51;;;;;;;1999.90;999.90;;;20.30;32.80;;;;;;5032417;28;20417;-69
2023/06/13 05:51:16;;;;;;;1999.90;999.90;;;20.40;31.40;;;;;;5032423;28;20273;-69
2023/06/13 05:53:42;;;;;;;1999.90;999.90;;;20.40;33.30;;;;;;5032534;28;20689;-69
2023/06/13 05:56:08;;;;;;;1999.90;999.90;;;20.50;36.50;;;;;;5032411;28;20174;-69
2023/06/13 05:58:34;;;;;;;1999.90;999.90;;;20.60;34.00;;;;;;5032336;28;20549;-69
2023/06/13 06:01:01;;;;;;;1999.90;999.90;;;20.60;33.90;;;;;;5032151;28;20175;-69
2023/06/13 06:03:28;;;;;;;1999.90;999.90;;;20.60;33.20;;;;;;5032380;28;20985;-69
2023/06/13 06:05:54;;;;;;;1999.90;999.90;;;20.60;32.40;;;;;;5032284;28;20405;-69
2023/06/13 06:08:20;;;;;;;1999.90;999.90;;;20.70;30.70;;;;;;5032014;28;20435;-69
2023/06/13 06:10:45;;;;;;;1999.90;999.90;;;20.70;31.20;;;;;;5032219;28;20536;-69
2023/06/13 06:13:11;;;;;;;1999.90;999.90;;;20.60;31.30;;;;;;5032092;28;20384;-69
2023/06/13 06:15:36;;;;;;;1999.90;999.90;;;20.70;31.70;;;;;;5032526;28;20715;-69
2023/06/13 06:18:02;;;;;;;1999.90;999.90;;;20.70;34.00;;;;;;5032326;28;20247;-69
2023/06/13 06:20:28;;;;;;;1999.90;999.90;;;20.80;32.40;;;;;;5032097;28;20571;-69
2023/06/13 06:22:54;;;;;;;1999.90;999.90;;;21.00;37.00;;;;;;5031836;28;20293;-69
2023/06/13 06:25:20;;;;;;;1999.90;999.90;;;21.00;34.00;;;;;;5032328;28;20408;-69
2023/06/13 06:27:50;;;;;;;1999.90;999.90;;;21.10;29.80;;;;;;5032125;28;20199;-69
2023/06/13 06:30:15;;;;;;;1999.90;999.90;;;21.20;31.10;;;;;;5032093;28;20248;-69
2023/06/13 06:32:42;;;;;;;1999.90;999.90;;;21.20;30.60;;;;;;5031685;28;20456;-69
2023/06/13 06:35:08;;;;;;;1999.90;999.90;;;21.20;30.80;;;;;;5032122;28;20500;-69
2023/06/13 06:37:33;;;;;;;1999.90;999.90;;;21.30;30.60;;;;;;5032137;28;20408;-69
2023/06/13 06:39:59;;;;;;;1999.90;999.90;;;21.40;30.60;;;;;;5032189;28;20874;-69
2023/06/13 06:42:25;;;;;;;1999.90;999.90;;;21.50;28.50;;;;;;5031696;28;20208;-69
2023/06/13 06:44:51;;;;;;;1999.90;999.90;;;21.60;25.90;;;;;;5032222;28;20449;-69
2023/06/13 06:47:17;;;;;;;1999.90;999.90;;;21.60;27.90;;;;;;5032049;28;20190;-69
2023/06/13 06:49:43;;;;;;;1999.90;999.90;;;21.70;28.50;;;;;;5032151;28;20410;-69
2023/06/13 06:52:08;;;;;;;1999.90;999.90;;;21.90;26.60;;;;;;5031570;28;20187;-69
2023/06/13 06:54:34;;;;;;;1999.90;999.90;;;21.90;25.30;;;;;;5034727;28;20262;-69
2023/06/13 06:57:02;;;;;;;1999.90;999.90;;;22.00;24.40;;;;;;5035871;28;20522;-69
2023/06/13 06:59:27;;;;;;;1999.90;999.90;;;22.10;22.00;;;;;;5035420;28;20484;-69
2023/06/13 07:01:53;;;;;;;1999.90;999.90;;;22.20;21.60;;;;;;5035134;28;20462;-69
2023/06/13 07:04:18;;;;;;;1999.90;999.90;;;22.20;22.10;;;;;;5035366;28;20728;-69
2023/06/13 07:06:44;;;;;;;1999.90;999.90;;;22.20;19.90;;;;;;5035327;28;20199;-70
2023/06/13 07:09:10;;;;;;;1999.90;999.90;;;22.30;19.60;;;;;;5035166;28;20192;-69
2023/06/13 07:11:36;;;;;;;1999.90;999.90;;;22.30;19.60;;;;;;5034728;28;20441;-69
2023/06/13 07:14:02;;;;;;;1999.90;999.90;;;22.30;18.50;;;;;;5035077;28;20172;-69
2023/06/13 07:16:27;;;;;;;1999.90;999.90;;;22.30;20.30;;;;;;5034977;28;20184;-69
2023/06/13 07:18:53;;;;;;;1999.90;999.90;;;22.50;19.10;;;;;;5035036;28;20165;-69
2023/06/13 07:21:18;;;;;;;1999.90;999.90;;;22.60;19.50;;;;;;5034612;28;20214;-69
2023/06/13 07:23:44;;;;;;;1999.90;999.90;;;22.60;18.20;;;;;;5034921;28;20199;-69
2023/06/13 07:26:11;;;;;;;1999.90;999.90;;;22.70;18.90;;;;;;5034873;28;20164;-69
2023/06/13 07:28:37;;;;;;;1999.90;999.90;;;22.70;18.80;;;;;;5034995;28;20198;-69
2023/06/13 07:31:03;;;;;;;1999.90;999.90;;;22.80;18.30;;;;;;5034584;28;20881;-69
2023/06/13 07:33:29;;;;;;;1999.90;999.90;;;22.90;18.10;;;;;;5034903;28;20556;-69
2023/06/13 07:35:56;;;;;;;1999.90;999.90;;;22.90;17.10;;;;;;5034754;28;20172;-68
2023/06/13 07:38:22;;;;;;;1999.90;999.90;;;22.90;18.50;;;;;;5034603;28;20215;-69
2023/06/13 07:40:47;;;;;;;1999.90;999.90;;;23.00;18.10;;;;;;5034883;28;20413;-69
2023/06/13 07:43:13;;;;;;;1999.90;999.90;;;23.00;17.90;;;;;;5034369;28;20690;-69
2023/06/13 07:45:39;;;;;;;1999.90;999.90;;;23.10;18.60;;;;;;5034639;28;20164;-68
2023/06/13 07:48:05;;;;;;;1999.90;999.90;;;23.10;18.40;;;;;;5034522;28;20291;-69
2023/06/13 07:50:30;;;;;;;1999.90;999.90;;;23.20;18.00;;;;;;5034474;28;20643;-69
2023/06/13 07:52:56;;;;;;;1999.90;999.90;;;23.30;17.90;;;;;;5034105;28;20742;-69
2023/06/13 07:55:22;;;;;;;1999.90;999.90;;;23.30;17.70;;;;;;5034392;28;20176;-69
2023/06/13 07:57:47;;;;;;;1999.90;999.90;;;23.40;17.60;;;;;;5034261;28;20271;-69
2023/06/13 08:00:17;;;;;;;1999.90;999.90;;;23.50;18.20;;;;;;5034275;28;20173;-69
2023/06/13 08:02:46;;;;;;;1999.90;999.90;;;23.40;16.10;;;;;;5033920;28;20188;-68
2023/06/13 08:05:13;;;;;;;1999.90;999.90;;;23.50;16.30;;;;;;5033870;28;20377;-69
2023/06/13 08:07:39;;;;;;;1999.90;999.90;;;23.60;17.10;;;;;;5030290;28;20467;-69
2023/06/13 08:10:05;;;;;;;1999.90;999.90;;;23.60;17.20;;;;;;5032869;28;21043;-69
2023/06/13 08:12:31;;;;;;;1999.90;999.90;;;23.70;16.10;;;;;;5030825;28;20233;-69
2023/06/13 08:14:57;;;;;;;1999.90;999.90;;;23.80;15.60;;;;;;5029989;28;20392;-70
2023/06/13 08:17:24;;;;;;;1999.90;999.90;;;23.70;17.50;;;;;;5030012;28;20426;-69
2023/06/13 08:19:50;;;;;;;1999.90;999.90;;;23.80;16.00;;;;;;5029088;28;20207;-69
2023/06/13 08:22:17;;;;;;;1999.90;999.90;;;23.90;16.40;;;;;;5029739;28;20425;-69
2023/06/13 08:24:43;;;;;;;1999.90;999.90;;;24.00;15.70;;;;;;5029324;28;20397;-69
2023/06/13 08:27:10;;;;;;;1999.90;999.90;;;24.10;16.90;;;;;;5030043;28;20447;-69
2023/06/13 08:29:35;;;;;;;1999.90;999.90;;;24.20;16.10;;;;;;5028892;28;20393;-69
2023/06/13 08:32:01;;;;;;;1999.90;999.90;;;24.30;15.70;;;;;;5029582;28;20468;-69
2023/06/13 08:34:27;;;;;;;1999.90;999.90;;;24.30;15.30;;;;;;5029657;28;20813;-70
2023/06/13 08:36:53;;;;;;;1999.90;999.90;;;24.50;13.80;;;;;;5029125;28;20407;-69
2023/06/13 08:39:19;;;;;;;1999.90;999.90;;;24.60;13.90;;;;;;5029360;28;20886;-70
2023/06/13 08:41:45;;;;;;;1999.90;999.90;;;24.70;14.80;;;;;;5028843;28;20227;-70
2023/06/13 08:44:11;;;;;;;1999.90;999.90;;;24.80;13.70;;;;;;5029683;28;20920;-69
2023/06/13 08:46:37;;;;;;;1999.90;999.90;;;25.00;13.70;;;;;;5032718;28;20192;-69
2023/06/13 08:49:03;;;;;;;1999.90;999.90;;;25.10;13.10;;;;;;5033417;28;20779;-69
2023/06/13 08:51:30;;;;;;;1999.90;999.90;;;25.20;12.60;;;;;;5033326;28;20706;-69
2023/06/13 08:54:02;;;;;;;1999.90;999.90;;;25.30;9.80;;;;;;5033273;28;20465;-69
2023/06/13 08:56:31;;;;;;;1999.90;999.90;;;25.40;8.70;;;;;;5033179;28;20415;-69
2023/06/13 08:59:00;;;;;;;1999.90;999.90;;;25.40;8.80;;;;;;5033106;28;20424;-69
2023/06/13 09:01:28;;;;;;;1999.90;999.90;;;25.50;7.20;;;;;;5032867;28;20417;-69
2023/06/13 09:03:56;;;;;;;1999.90;999.90;;;25.60;6.60;;;;;;5032870;28;20559;-69
2023/06/13 09:06:23;;;;;;;1999.90;999.90;;;25.60;5.80;;;;;;5032990;28;20461;-69
2023/06/13 09:08:50;;;;;;;1999.90;999.90;;;25.60;5.40;;;;;;5032967;28;20404;-70
2023/06/13 09:11:16;;;;;;;1999.90;999.90;;;25.60;6.00;;;;;;5032779;28;20784;-69
2023/06/13 09:13:44;;;;;;;1999.90;999.90;;;25.50;5.70;;;;;;5033103;28;20833;-69
2023/06/13 09:16:10;;;;;;;1999.90;999.90;;;25.50;6.00;;;;;;5032319;28;20439;-69
2023/06/13 09:18:40;;;;;;;1999.90;999.90;;;25.60;6.30;;;;;;5032966;28;20399;-69
2023/06/13 09:21:06;;;;;;;1999.90;999.90;;;25.70;6.40;;;;;;5032389;28;20427;-69
2023/06/13 09:23:32;;;;;;;1999.90;999.90;;;25.90;7.30;;;;;;5032729;28;20488;-69
2023/06/13 09:25:59;;;;;;;1999.90;999.90;;;25.90;7.00;;;;;;5032910;28;20614;-69
2023/06/13 09:28:36;;;;;;;1999.90;999.90;;;26.00;8.40;;;;;;5032568;28;20925;-69
2023/06/13 09:31:01;;;;;;;1999.90;999.90;;;26.10;6.90;;;;;;5032404;28;20920;-69
2023/06/13 09:33:27;;;;;;;1999.90;999.90;;;26.20;6.80;;;;;;5032619;28;20411;-70
2023/06/13 09:35:53;;;;;;;1999.90;999.90;;;26.30;6.20;;;;;;5032526;28;20707;-69
2023/06/13 09:38:24;;;;;;;1999.90;999.90;;;26.40;6.90;;;;;;5032429;28;20662;-69
2023/06/13 09:40:56;;;;;;;1999.90;999.90;;;26.60;6.40;;;;;;5032530;28;20411;-70
2023/06/13 09:43:23;;;;;;;1999.90;999.90;;;26.70;6.10;;;;;;5032262;28;20951;-70
2023/06/13 09:45:50;;;;;;;1999.90;999.90;;;26.70;4.90;;;;;;5032399;28;20853;-68
2023/06/13 09:48:17;;;;;;;1999.90;999.90;;;26.70;4.40;;;;;;5032433;28;20480;-69
2023/06/13 09:50:43;;;;;;;1999.90;999.90;;;26.80;5.60;;;;;;5032165;28;20446;-69
2023/06/13 09:53:09;;;;;;;1999.90;999.90;;;26.90;4.50;;;;;;5031972;28;20443;-69
2023/06/13 09:55:36;;;;;;;1999.90;999.90;;;26.90;3.60;;;;;;5032249;28;20183;-68
2023/06/13 09:58:05;;;;;;;1999.90;999.90;;;26.80;2.70;;;;;;5032041;28;20526;-69
2023/06/13 10:00:31;;;;;;;1999.90;999.90;;;26.80;3.40;;;;;;5032138;28;20485;-69
2023/06/13 10:02:57;;;;;;;1999.90;999.90;;;27.00;4.00;;;;;;5031826;28;20454;-69
2023/06/13 10:05:23;;;;;;;1999.90;999.90;;;27.10;3.50;;;;;;5032077;28;20171;-69
2023/06/13 10:07:49;;;;;;;1999.90;999.90;;;27.30;3.20;;;;;;5031931;28;20923;-69
2023/06/13 10:10:14;;;;;;;1999.90;999.90;;;27.40;2.10;;;;;;5032064;28;20428;-69
2023/06/13 10:12:58;;;;;;;1999.90;999.90;;;27.40;1.40;;;;;;5031592;28;20164;-69
2023/06/13 10:15:43;;;;;;;1999.90;999.90;;;27.60;1.20;;;;;;5032079;28;20190;-69
2023/06/13 10:18:15;;;;;;;1999.90;999.90;;;27.70;1.00;;;;;;5031815;28;20461;-69
2023/06/13 10:20:44;;;;;;;1999.90;999.90;;;27.80;1.40;;;;;;5031778;28;20427;-68
2023/06/13 10:23:13;;;;;;;1999.90;999.90;;;27.70;1.00;;;;;;5031516;28;20465;-71
2023/06/13 10:25:40;;;;;;;1999.90;999.90;;;27.80;1.00;;;;;;5031840;28;20839;-68
2023/06/13 10:28:26;;;;;;;1999.90;999.90;;;27.90;1.00;;;;;;5034160;28;20426;-69
2023/06/13 10:31:07;;;;;;;1999.90;999.90;;;28.10;1.00;;;;;;5014686;28;20417;-69
2023/06/13 10:33:55;;;;;;;1999.90;999.90;;;28.20;1.00;;;;;;5035906;28;20406;-69
2023/06/13 10:36:57;;;;;;;1999.90;999.90;;;28.30;1.00;;;;;;5035866;28;20972;-69
2023/06/13 10:39:45;;;;;;;1999.90;999.90;;;28.50;1.00;;;;;;5035846;28;20406;-68
2023/06/13 10:42:23;;;;;;;1999.90;999.90;;;28.50;1.00;;;;;;5035389;28;21126;-70
2023/06/13 10:44:57;;;;;;;1999.90;999.90;;;28.50;1.00;;;;;;5035703;28;20916;-69
2023/06/13 10:47:23;;;;;;;1999.90;999.90;;;28.60;1.00;;;;;;5035549;28;20422;-69
2023/06/13 10:49:51;;;;;;;1999.90;999.90;;;28.70;1.00;;;;;;5035538;28;20399;-69
2023/06/13 10:52:20;;;;;;;1999.90;999.90;;;28.60;1.00;;;;;;5035224;28;20160;-70
2023/06/13 10:54:58;;;;;;;1999.90;999.90;;;28.70;1.00;;;;;;5035469;28;20410;-68
2023/06/13 10:57:49;;;;;;;1999.90;999.90;;;28.90;1.00;;;;;;5035666;28;20559;-69
2023/06/13 11:00:30;;;;;;;1999.90;999.90;;;29.10;1.00;;;;;;5036959;28;20401;-70
2023/06/13 11:03:06;;;;;;;1999.90;999.90;;;29.20;1.00;;;;;;5037469;28;20592;-70
2023/06/13 11:05:47;;;;;;;1999.90;999.90;;;29.30;1.00;;;;;;5037998;28;20398;-70
2023/06/13 11:08:18;;;;;;;1999.90;999.90;;;29.30;1.00;;;;;;5037212;28;20410;-70
2023/06/13 11:10:46;;;;;;;1999.90;999.90;;;29.40;1.00;;;;;;5037121;28;20407;-70
2023/06/13 11:13:20;;;;;;;1999.90;999.90;;;29.40;1.00;;;;;;5036765;28;20399;-70
2023/06/13 11:15:46;;;;;;;1999.90;999.90;;;29.40;1.00;;;;;;5036803;28;20498;-70
2023/06/13 11:18:14;;;;;;;1999.90;999.90;;;29.60;1.00;;;;;;5036523;28;20458;-70
2023/06/13 11:20:53;;;;;;;1999.90;999.90;;;29.50;1.00;;;;;;5035547;28;20196;-70
2023/06/13 11:23:22;;;;;;;1999.90;999.90;;;29.50;1.00;;;;;;5035722;28;20469;-70
2023/06/13 11:25:52;;;;;;;1999.90;999.90;;;29.60;1.00;;;;;;5035626;28;20799;-70
2023/06/13 11:28:18;;;;;;;1999.90;999.90;;;29.70;1.00;;;;;;5035717;28;20437;-70
2023/06/13 11:30:47;;;;;;;1999.90;999.90;;;29.90;1.00;;;;;;5036078;28;21116;-70
2023/06/13 11:33:14;;;;;;;1999.90;999.90;;;30.10;1.00;;;;;;5035941;28;20893;-70
2023/06/13 11:35:56;;;;;;;1999.90;999.90;;;30.30;1.00;;;;;;5035700;28;20419;-70
2023/06/13 11:38:31;;;;;;;1999.90;999.90;;;30.50;1.00;;;;;;5034872;28;20431;-70
2023/06/13 11:40:57;;;;;;;1999.90;999.90;;;30.40;1.00;;;;;;5034709;28;20406;-70
2023/06/13 11:43:28;;;;;;;1999.90;999.90;;;30.60;1.00;;;;;;5035525;28;20454;-70
2023/06/13 11:46:01;;;;;;;1999.90;999.90;;;30.70;1.00;;;;;;5035599;28;20901;-70
2023/06/13 11:48:27;;;;;;;1999.90;999.90;;;30.70;1.00;;;;;;5034885;28;20458;-70
2023/06/13 11:50:52;;;;;;;1999.90;999.90;;;30.80;1.00;;;;;;5034924;28;20407;-70
2023/06/13 11:53:19;;;;;;;1999.90;999.90;;;31.00;1.00;;;;;;5034938;28;20175;-70
2023/06/13 11:55:45;;;;;;;1999.90;999.90;;;31.30;1.00;;;;;;5034916;28;20458;-70
2023/06/13 11:58:11;;;;;;;1999.90;999.90;;;31.40;1.00;;;;;;5034809;28;20869;-70
2023/06/13 12:00:50;;;;;;;1999.90;999.90;;;31.30;1.00;;;;;;5034619;28;20439;-70
2023/06/13 12:03:20;;;;;;;1999.90;999.90;;;31.20;1.00;;;;;;5034471;28;20250;-70
2023/06/13 12:05:45;;;;;;;1999.90;999.90;;;31.40;1.00;;;;;;5034789;28;20407;-70
2023/06/13 12:08:11;;;;;;;1999.90;999.90;;;31.80;1.00;;;;;;5035106;28;20421;-70